sensor_id;sensor_type;location;lat;lon;timestamp;pressure;altitude;pressure_sealevel;temperature;humidity
74103;BME280;62463;46.166;3.640;2022-07-29T00:00:35;96754.75;;;18.30;51.54
74103;BME280;62463;46.166;3.640;2022-07-29T00:03:02;96747.81;;;18.29;51.68
74103;BME280;62463;46.166;3.640;2022-07-29T00:05:30;96747.03;;;18.28;52.16
74103;BME280;62463;46.166;3.640;2022-07-29T00:08:06;96745.16;;;18.29;51.84
74103;BME280;62463;46.166;3.640;2022-07-29T00:10:36;96743.75;;;18.26;51.90
74103;BME280;62463;46.166;3.640;2022-07-29T00:13:02;96737.88;;;18.24;51.96
74103;BME280;62463;46.166;3.640;2022-07-29T00:15:29;96738.34;;;18.21;51.76
74103;BME280;62463;46.166;3.640;2022-07-29T00:17:55;96736.72;;;18.20;51.66
74103;BME280;62463;46.166;3.640;2022-07-29T00:20:21;96749.22;;;18.19;52.70
74103;BME280;62463;46.166;3.640;2022-07-29T00:22:47;96737.53;;;18.20;52.32
74103;BME280;62463;46.166;3.640;2022-07-29T00:25:14;96739.16;;;18.21;52.70
74103;BME280;62463;46.166;3.640;2022-07-29T00:27:40;96728.50;;;18.21;52.60
74103;BME280;62463;46.166;3.640;2022-07-29T00:30:07;96729.06;;;18.24;53.25
74103;BME280;62463;46.166;3.640;2022-07-29T00:32:34;96720.28;;;18.23;53.51
74103;BME280;62463;46.166;3.640;2022-07-29T00:35:00;96719.91;;;18.19;53.36
74103;BME280;62463;46.166;3.640;2022-07-29T00:37:45;96712.16;;;18.18;53.90
74103;BME280;62463;46.166;3.640;2022-07-29T00:40:11;96708.59;;;18.12;53.74
74103;BME280;62463;46.166;3.640;2022-07-29T00:42:49;96717.03;;;18.09;52.51
74103;BME280;62463;46.166;3.640;2022-07-29T00:45:16;96712.78;;;18.08;52.33
74103;BME280;62463;46.166;3.640;2022-07-29T00:47:43;96712.78;;;18.08;52.60
74103;BME280;62463;46.166;3.640;2022-07-29T00:50:10;96718.09;;;18.08;53.11
74103;BME280;62463;46.166;3.640;2022-07-29T00:52:38;96700.16;;;18.03;52.79
74103;BME280;62463;46.166;3.640;2022-07-29T00:55:08;96701.06;;;18.09;51.57
74103;BME280;62463;46.166;3.640;2022-07-29T00:57:35;96698.63;;;18.19;51.94
74103;BME280;62463;46.166;3.640;2022-07-29T01:00:03;96695.47;;;18.22;50.44
74103;BME280;62463;46.166;3.640;2022-07-29T01:02:30;96701.03;;;18.21;50.96
74103;BME280;62463;46.166;3.640;2022-07-29T01:04:56;96697.00;;;18.18;50.98
74103;BME280;62463;46.166;3.640;2022-07-29T01:07:24;96693.78;;;18.16;52.55
74103;BME280;62463;46.166;3.640;2022-07-29T01:09:52;96677.69;;;18.11;52.77
74103;BME280;62463;46.166;3.640;2022-07-29T01:37:42;96688.94;;;17.66;54.45
74103;BME280;62463;46.166;3.640;2022-07-29T01:40:19;96691.47;;;17.61;53.79
74103;BME280;62463;46.166;3.640;2022-07-29T01:42:51;96694.03;;;17.56;54.92
74103;BME280;62463;46.166;3.640;2022-07-29T01:45:23;96689.38;;;17.51;55.32
74103;BME280;62463;46.166;3.640;2022-07-29T01:48:02;96685.56;;;17.47;55.41
74103;BME280;62463;46.166;3.640;2022-07-29T01:50:40;96688.47;;;17.45;55.14
74103;BME280;62463;46.166;3.640;2022-07-29T01:53:13;96684.19;;;17.44;55.74
74103;BME280;62463;46.166;3.640;2022-07-29T01:55:44;96686.03;;;17.44;55.49
74103;BME280;62463;46.166;3.640;2022-07-29T01:58:12;96683.59;;;17.42;54.39
74103;BME280;62463;46.166;3.640;2022-07-29T02:00:41;96677.56;;;17.47;54.85
74103;BME280;62463;46.166;3.640;2022-07-29T02:03:11;96683.28;;;17.51;54.69
74103;BME280;62463;46.166;3.640;2022-07-29T02:05:39;96684.66;;;17.53;54.68
74103;BME280;62463;46.166;3.640;2022-07-29T02:08:08;96687.66;;;17.57;54.24
74103;BME280;62463;46.166;3.640;2022-07-29T02:10:36;96679.78;;;17.62;54.48
74103;BME280;62463;46.166;3.640;2022-07-29T02:13:04;96683.63;;;17.66;55.47
74103;BME280;62463;46.166;3.640;2022-07-29T02:15:33;96676.78;;;17.70;55.70
74103;BME280;62463;46.166;3.640;2022-07-29T02:18:18;96683.03;;;17.76;54.93
74103;BME280;62463;46.166;3.640;2022-07-29T02:20:52;96690.53;;;17.79;55.81
74103;BME280;62463;46.166;3.640;2022-07-29T02:23:21;96687.41;;;17.82;56.33
74103;BME280;62463;46.166;3.640;2022-07-29T02:25:53;96689.41;;;17.87;55.70
74103;BME280;62463;46.166;3.640;2022-07-29T02:28:23;96690.78;;;17.89;55.67
74103;BME280;62463;46.166;3.640;2022-07-29T02:30:51;96688.50;;;17.93;56.25
74103;BME280;62463;46.166;3.640;2022-07-29T02:33:18;96703.97;;;17.96;56.00
74103;BME280;62463;46.166;3.640;2022-07-29T02:35:47;96696.59;;;17.98;56.30
74103;BME280;62463;46.166;3.640;2022-07-29T02:38:18;96688.59;;;17.98;57.04
74103;BME280;62463;46.166;3.640;2022-07-29T02:41:15;96687.31;;;18.00;56.66
74103;BME280;62463;46.166;3.640;2022-07-29T02:43:43;96693.09;;;17.97;56.22
74103;BME280;62463;46.166;3.640;2022-07-29T02:46:14;96694.63;;;17.93;55.85
74103;BME280;62463;46.166;3.640;2022-07-29T02:48:50;96697.97;;;17.89;56.71
74103;BME280;62463;46.166;3.640;2022-07-29T02:51:28;96698.63;;;17.84;56.61
74103;BME280;62463;46.166;3.640;2022-07-29T02:54:01;96697.72;;;17.78;56.74
74103;BME280;62463;46.166;3.640;2022-07-29T02:56:33;96702.25;;;17.78;57.41
74103;BME280;62463;46.166;3.640;2022-07-29T02:59:05;96701.66;;;17.76;57.26
74103;BME280;62463;46.166;3.640;2022-07-29T03:01:35;96708.25;;;17.73;57.30
74103;BME280;62463;46.166;3.640;2022-07-29T03:04:20;96710.56;;;17.70;57.27
74103;BME280;62463;46.166;3.640;2022-07-29T03:06:52;96709.63;;;17.64;57.29
74103;BME280;62463;46.166;3.640;2022-07-29T03:09:23;96707.09;;;17.57;57.24
74103;BME280;62463;46.166;3.640;2022-07-29T03:11:51;96707.09;;;17.57;56.33
74103;BME280;62463;46.166;3.640;2022-07-29T03:21:03;96722.34;;;17.50;57.30
74103;BME280;62463;46.166;3.640;2022-07-29T03:23:32;96719.56;;;17.45;57.67
74103;BME280;62463;46.166;3.640;2022-07-29T03:26:04;96718.16;;;17.31;59.77
74103;BME280;62463;46.166;3.640;2022-07-29T03:28:34;96714.19;;;17.21;60.86
74103;BME280;62463;46.166;3.640;2022-07-29T03:31:00;96711.88;;;17.13;61.06
74103;BME280;62463;46.166;3.640;2022-07-29T03:33:26;96717.28;;;17.06;61.19
74103;BME280;62463;46.166;3.640;2022-07-29T03:35:54;96722.47;;;17.01;61.69
74103;BME280;62463;46.166;3.640;2022-07-29T03:38:24;96729.28;;;16.97;60.92
74103;BME280;62463;46.166;3.640;2022-07-29T03:41:02;96737.13;;;16.92;62.09
74103;BME280;62463;46.166;3.640;2022-07-29T03:43:32;96741.94;;;16.83;62.51
74103;BME280;62463;46.166;3.640;2022-07-29T03:46:02;96747.31;;;16.77;63.39
74103;BME280;62463;46.166;3.640;2022-07-29T03:48:30;96744.31;;;16.73;63.95
74103;BME280;62463;46.166;3.640;2022-07-29T03:51:01;96742.44;;;16.73;63.53
74103;BME280;62463;46.166;3.640;2022-07-29T03:53:28;96749.38;;;16.74;62.39
74103;BME280;62463;46.166;3.640;2022-07-29T03:55:59;96743.63;;;16.78;62.54
74103;BME280;62463;46.166;3.640;2022-07-29T03:58:26;96741.78;;;16.78;63.18
74103;BME280;62463;46.166;3.640;2022-07-29T04:00:54;96738.66;;;16.81;62.70
74103;BME280;62463;46.166;3.640;2022-07-29T04:03:21;96743.97;;;16.81;63.22
74103;BME280;62463;46.166;3.640;2022-07-29T04:06:06;96750.91;;;16.82;61.82
74103;BME280;62463;46.166;3.640;2022-07-29T04:08:33;96752.78;;;16.82;62.87
74103;BME280;62463;46.166;3.640;2022-07-29T04:11:00;96750.13;;;16.82;62.99
74103;BME280;62463;46.166;3.640;2022-07-29T04:13:26;96749.91;;;16.83;62.31
74103;BME280;62463;46.166;3.640;2022-07-29T04:15:53;96752.09;;;16.86;62.73
74103;BME280;62463;46.166;3.640;2022-07-29T04:18:19;96750.66;;;16.90;62.18
74103;BME280;62463;46.166;3.640;2022-07-29T04:20:46;96751.81;;;16.95;62.03
74103;BME280;62463;46.166;3.640;2022-07-29T04:23:23;96754.22;;;16.96;61.39
74103;BME280;62463;46.166;3.640;2022-07-29T04:25:51;96747.66;;;16.99;61.73
74103;BME280;62463;46.166;3.640;2022-07-29T04:28:18;96748.47;;;16.99;61.89
74103;BME280;62463;46.166;3.640;2022-07-29T04:30:44;96744.19;;;16.98;62.54
74103;BME280;62463;46.166;3.640;2022-07-29T04:33:10;96747.09;;;16.97;62.33
74103;BME280;62463;46.166;3.640;2022-07-29T04:35:37;96748.69;;;16.98;62.25
74103;BME280;62463;46.166;3.640;2022-07-29T04:38:05;96748.47;;;16.99;62.26
74103;BME280;62463;46.166;3.640;2022-07-29T04:40:40;96749.28;;;17.00;62.05
74103;BME280;62463;46.166;3.640;2022-07-29T04:43:07;96752.91;;;17.05;61.50
74103;BME280;62463;46.166;3.640;2022-07-29T04:45:33;96757.28;;;17.11;60.91
74103;BME280;62463;46.166;3.640;2022-07-29T04:48:00;96764.38;;;17.18;60.84
74103;BME280;62463;46.166;3.640;2022-07-29T04:50:26;96762.41;;;17.25;60.68
74103;BME280;62463;46.166;3.640;2022-07-29T04:52:52;96768.47;;;17.32;60.28
74103;BME280;62463;46.166;3.640;2022-07-29T04:55:19;96770.78;;;17.40;60.38
74103;BME280;62463;46.166;3.640;2022-07-29T04:57:45;96768.84;;;17.47;60.67
74103;BME280;62463;46.166;3.640;2022-07-29T05:00:11;96770.56;;;17.54;59.22
74103;BME280;62463;46.166;3.640;2022-07-29T05:02:38;96769.91;;;17.58;60.35
74103;BME280;62463;46.166;3.640;2022-07-29T05:05:04;96772.44;;;17.65;60.53
74103;BME280;62463;46.166;3.640;2022-07-29T05:07:31;96776.88;;;17.71;60.85
74103;BME280;62463;46.166;3.640;2022-07-29T05:10:01;96766.13;;;17.78;59.90
74103;BME280;62463;46.166;3.640;2022-07-29T05:12:28;96768.06;;;17.82;59.49
74103;BME280;62463;46.166;3.640;2022-07-29T05:14:54;96770.06;;;17.87;59.43
74103;BME280;62463;46.166;3.640;2022-07-29T05:17:21;96777.81;;;17.89;60.28
74103;BME280;62463;46.166;3.640;2022-07-29T05:19:48;96779.47;;;17.90;60.60
74103;BME280;62463;46.166;3.640;2022-07-29T05:22:20;96776.56;;;17.91;60.72
74103;BME280;62463;46.166;3.640;2022-07-29T05:24:47;96780.59;;;17.94;61.20
74103;BME280;62463;46.166;3.640;2022-07-29T05:27:13;96773.19;;;17.96;61.42
74103;BME280;62463;46.166;3.640;2022-07-29T05:29:40;96776.22;;;17.99;60.53
74103;BME280;62463;46.166;3.640;2022-07-29T05:32:06;96781.66;;;18.05;61.72
74103;BME280;62463;46.166;3.640;2022-07-29T05:34:33;96777.72;;;18.07;61.93
74103;BME280;62463;46.166;3.640;2022-07-29T05:36:59;96771.94;;;18.10;62.60
74103;BME280;62463;46.166;3.640;2022-07-29T05:39:25;96776.78;;;18.13;62.12
74103;BME280;62463;46.166;3.640;2022-07-29T05:41:52;96780.25;;;18.14;61.87
74103;BME280;62463;46.166;3.640;2022-07-29T05:44:18;96790.34;;;18.12;61.03
74103;BME280;62463;46.166;3.640;2022-07-29T05:46:44;96786.50;;;18.08;61.89
74103;BME280;62463;46.166;3.640;2022-07-29T05:49:11;96794.38;;;18.02;60.62
74103;BME280;62463;46.166;3.640;2022-07-29T05:51:43;96797.53;;;17.99;61.03
74103;BME280;62463;46.166;3.640;2022-07-29T05:54:08;96797.16;;;17.96;61.68
74103;BME280;62463;46.166;3.640;2022-07-29T05:56:36;96796.22;;;17.90;61.62
74103;BME280;62463;46.166;3.640;2022-07-29T05:59:02;96801.78;;;17.89;61.38
74103;BME280;62463;46.166;3.640;2022-07-29T06:01:28;96811.03;;;17.86;60.86
74103;BME280;62463;46.166;3.640;2022-07-29T06:03:54;96821.06;;;17.84;60.19
74103;BME280;62463;46.166;3.640;2022-07-29T06:06:20;96817.84;;;17.82;60.64
74103;BME280;62463;46.166;3.640;2022-07-29T06:08:45;96810.06;;;17.80;60.21
74103;BME280;62463;46.166;3.640;2022-07-29T06:11:11;96814.38;;;17.81;59.81
74103;BME280;62463;46.166;3.640;2022-07-29T06:13:37;96816.81;;;17.83;59.67
74103;BME280;62463;46.166;3.640;2022-07-29T06:16:02;96822.13;;;17.83;59.79
74103;BME280;62463;46.166;3.640;2022-07-29T06:18:29;96812.06;;;17.85;59.89
74103;BME280;62463;46.166;3.640;2022-07-29T06:20:55;96815.31;;;17.87;60.02
74103;BME280;62463;46.166;3.640;2022-07-29T06:23:21;96812.84;;;17.85;61.06
74103;BME280;62463;46.166;3.640;2022-07-29T06:25:47;96820.44;;;17.58;64.47
74103;BME280;62463;46.166;3.640;2022-07-29T06:28:13;96833.13;;;17.44;65.35
74103;BME280;62463;46.166;3.640;2022-07-29T06:30:40;96830.00;;;17.36;67.89
74103;BME280;62463;46.166;3.640;2022-07-29T06:33:05;96829.78;;;17.37;70.50
74103;BME280;62463;46.166;3.640;2022-07-29T06:35:35;96830.69;;;17.43;68.47
74103;BME280;62463;46.166;3.640;2022-07-29T06:38:02;96843.47;;;17.53;67.51
74103;BME280;62463;46.166;3.640;2022-07-29T06:40:30;96849.63;;;17.65;70.18
74103;BME280;62463;46.166;3.640;2022-07-29T06:43:15;96838.66;;;17.73;69.67
74103;BME280;62463;46.166;3.640;2022-07-29T06:45:41;96840.63;;;17.78;70.06
74103;BME280;62463;46.166;3.640;2022-07-29T06:48:08;96842.34;;;17.84;70.06
74103;BME280;62463;46.166;3.640;2022-07-29T06:50:34;96843.34;;;17.90;68.61
74103;BME280;62463;46.166;3.640;2022-07-29T06:53:00;96838.13;;;17.95;68.46
74103;BME280;62463;46.166;3.640;2022-07-29T06:55:26;96836.19;;;18.02;67.86
74103;BME280;62463;46.166;3.640;2022-07-29T06:57:52;96838.03;;;18.13;68.42
74103;BME280;62463;46.166;3.640;2022-07-29T07:00:18;96836.88;;;18.21;67.38
74103;BME280;62463;46.166;3.640;2022-07-29T07:02:44;96836.28;;;18.31;66.54
74103;BME280;62463;46.166;3.640;2022-07-29T07:05:10;96839.19;;;18.41;66.29
74103;BME280;62463;46.166;3.640;2022-07-29T07:07:36;96841.16;;;18.57;66.27
74103;BME280;62463;46.166;3.640;2022-07-29T07:10:03;96849.78;;;18.76;65.67
74103;BME280;62463;46.166;3.640;2022-07-29T07:12:29;96850.63;;;18.89;64.02
74103;BME280;62463;46.166;3.640;2022-07-29T07:14:55;96849.44;;;18.96;64.32
74103;BME280;62463;46.166;3.640;2022-07-29T07:17:22;96857.84;;;19.17;65.27
74103;BME280;62463;46.166;3.640;2022-07-29T07:19:48;96856.72;;;19.42;64.61
74103;BME280;62463;46.166;3.640;2022-07-29T07:22:14;96856.84;;;19.64;62.08
74103;BME280;62463;46.166;3.640;2022-07-29T07:24:43;96852.50;;;19.75;62.69
74103;BME280;62463;46.166;3.640;2022-07-29T07:27:10;96852.94;;;19.55;65.07
74103;BME280;62463;46.166;3.640;2022-07-29T07:29:36;96855.16;;;19.46;64.92
74103;BME280;62463;46.166;3.640;2022-07-29T07:32:06;96858.56;;;19.41;64.37
74103;BME280;62463;46.166;3.640;2022-07-29T07:34:33;96853.47;;;19.40;62.70
74103;BME280;62463;46.166;3.640;2022-07-29T07:36:59;96854.03;;;19.42;62.06
74103;BME280;62463;46.166;3.640;2022-07-29T07:39:25;96849.78;;;19.58;62.47
74103;BME280;62463;46.166;3.640;2022-07-29T07:41:52;96846.31;;;19.74;65.46
74103;BME280;62463;46.166;3.640;2022-07-29T07:44:18;96847.16;;;19.92;62.12
74103;BME280;62463;46.166;3.640;2022-07-29T07:46:44;96851.78;;;20.13;62.40
74103;BME280;62463;46.166;3.640;2022-07-29T07:49:11;96844.59;;;20.31;62.03
74103;BME280;62463;46.166;3.640;2022-07-29T07:51:37;96855.19;;;20.42;59.74
74103;BME280;62463;46.166;3.640;2022-07-29T07:54:04;96849.06;;;20.47;59.14
74103;BME280;62463;46.166;3.640;2022-07-29T07:56:30;96847.22;;;20.48;60.14
74103;BME280;62463;46.166;3.640;2022-07-29T07:58:56;96845.91;;;20.50;59.24
74103;BME280;62463;46.166;3.640;2022-07-29T08:01:22;96841.97;;;20.53;58.46
74103;BME280;62463;46.166;3.640;2022-07-29T08:03:49;96858.38;;;20.61;58.84
74103;BME280;62463;46.166;3.640;2022-07-29T08:06:15;96858.13;;;20.80;56.74
74103;BME280;62463;46.166;3.640;2022-07-29T08:08:42;96870.44;;;21.03;56.54
74103;BME280;62463;46.166;3.640;2022-07-29T08:11:08;96869.09;;;21.28;54.90
74103;BME280;62463;46.166;3.640;2022-07-29T08:13:35;96868.59;;;21.53;54.28
74103;BME280;62463;46.166;3.640;2022-07-29T08:16:02;96879.56;;;21.79;53.24
74103;BME280;62463;46.166;3.640;2022-07-29T08:18:37;96876.81;;;22.01;52.11
74103;BME280;62463;46.166;3.640;2022-07-29T08:21:04;96874.78;;;22.13;51.34
74103;BME280;62463;46.166;3.640;2022-07-29T08:23:31;96883.84;;;22.39;50.12
74103;BME280;62463;46.166;3.640;2022-07-29T08:26:05;96880.22;;;22.61;48.70
74103;BME280;62463;46.166;3.640;2022-07-29T08:28:37;96885.41;;;22.78;49.48
74103;BME280;62463;46.166;3.640;2022-07-29T08:31:04;96883.66;;;22.99;47.59
74103;BME280;62463;46.166;3.640;2022-07-29T08:33:32;96883.50;;;23.21;48.20
74103;BME280;62463;46.166;3.640;2022-07-29T08:35:59;96886.50;;;23.35;46.67
74103;BME280;62463;46.166;3.640;2022-07-29T08:38:26;96877.91;;;23.38;48.91
74103;BME280;62463;46.166;3.640;2022-07-29T08:40:53;96891.38;;;23.48;48.67
74103;BME280;62463;46.166;3.640;2022-07-29T08:43:20;96892.78;;;23.66;48.27
74103;BME280;62463;46.166;3.640;2022-07-29T08:45:49;96886.88;;;23.80;47.62
74103;BME280;62463;46.166;3.640;2022-07-29T08:48:18;96882.34;;;23.95;48.16
74103;BME280;62463;46.166;3.640;2022-07-29T08:50:45;96881.28;;;24.12;50.47
74103;BME280;62463;46.166;3.640;2022-07-29T08:53:24;96881.81;;;24.24;48.44
74103;BME280;62463;46.166;3.640;2022-07-29T08:55:59;96884.22;;;23.90;48.56
74103;BME280;62463;46.166;3.640;2022-07-29T08:58:27;96878.47;;;23.45;49.11
74103;BME280;62463;46.166;3.640;2022-07-29T09:00:57;96887.06;;;23.42;49.10
74103;BME280;62463;46.166;3.640;2022-07-29T09:03:33;96891.63;;;23.47;49.21
74103;BME280;62463;46.166;3.640;2022-07-29T09:06:03;96892.44;;;23.47;48.81
74103;BME280;62463;46.166;3.640;2022-07-29T09:08:31;96885.72;;;23.45;50.40
74103;BME280;62463;46.166;3.640;2022-07-29T09:10:58;96886.66;;;23.08;50.93
74103;BME280;62463;46.166;3.640;2022-07-29T09:13:25;96891.09;;;22.87;51.35
74103;BME280;62463;46.166;3.640;2022-07-29T09:15:55;96877.50;;;22.56;52.78
74103;BME280;62463;46.166;3.640;2022-07-29T09:18:46;96880.38;;;22.44;54.56
74103;BME280;62463;46.166;3.640;2022-07-29T09:21:15;96884.09;;;22.38;54.13
74103;BME280;62463;46.166;3.640;2022-07-29T09:24:11;96894.34;;;22.14;55.71
74103;BME280;62463;46.166;3.640;2022-07-29T09:26:43;96902.59;;;22.07;54.99
74103;BME280;62463;46.166;3.640;2022-07-29T09:29:13;96895.50;;;22.23;56.15
74103;BME280;62463;46.166;3.640;2022-07-29T09:31:43;96896.38;;;22.01;56.06
74103;BME280;62463;46.166;3.640;2022-07-29T09:34:13;96897.53;;;22.10;57.24
74103;BME280;62463;46.166;3.640;2022-07-29T09:36:41;96906.69;;;22.15;57.83
74103;BME280;62463;46.166;3.640;2022-07-29T09:39:08;96909.06;;;22.11;56.16
74103;BME280;62463;46.166;3.640;2022-07-29T09:41:49;96908.72;;;22.29;55.96
74103;BME280;62463;46.166;3.640;2022-07-29T09:44:16;96912.47;;;22.34;54.53
74103;BME280;62463;46.166;3.640;2022-07-29T09:46:59;96907.78;;;22.51;53.04
74103;BME280;62463;46.166;3.640;2022-07-29T09:49:33;96910.09;;;22.80;51.81
74103;BME280;62463;46.166;3.640;2022-07-29T09:52:09;96920.09;;;22.90;52.86
74103;BME280;62463;46.166;3.640;2022-07-29T09:54:37;96917.16;;;22.91;54.13
74103;BME280;62463;46.166;3.640;2022-07-29T09:57:22;96916.81;;;22.77;53.48
74103;BME280;62463;46.166;3.640;2022-07-29T09:59:56;96916.56;;;22.84;53.09
74103;BME280;62463;46.166;3.640;2022-07-29T10:02:22;96921.75;;;23.01;53.23
74103;BME280;62463;46.166;3.640;2022-07-29T10:04:52;96925.69;;;22.83;52.21
74103;BME280;62463;46.166;3.640;2022-07-29T10:07:18;96920.13;;;23.00;53.53
74103;BME280;62463;46.166;3.640;2022-07-29T10:09:55;96921.91;;;23.32;52.37
74103;BME280;62463;46.166;3.640;2022-07-29T10:12:22;96921.44;;;23.45;50.50
74103;BME280;62463;46.166;3.640;2022-07-29T10:14:50;96917.72;;;23.62;49.29
74103;BME280;62463;46.166;3.640;2022-07-29T10:17:17;96920.44;;;23.77;50.79
74103;BME280;62463;46.166;3.640;2022-07-29T10:19:44;96919.72;;;24.07;50.13
74103;BME280;62463;46.166;3.640;2022-07-29T10:22:10;96918.09;;;24.11;47.47
74103;BME280;62463;46.166;3.640;2022-07-29T10:24:38;96921.06;;;24.15;50.03
74103;BME280;62463;46.166;3.640;2022-07-29T10:27:07;96929.41;;;24.03;49.58
74103;BME280;62463;46.166;3.640;2022-07-29T10:29:33;96928.50;;;23.72;47.96
74103;BME280;62463;46.166;3.640;2022-07-29T10:35:30;96940.97;;;23.30;49.71
74103;BME280;62463;46.166;3.640;2022-07-29T10:43:32;96935.94;;;22.91;53.91
74103;BME280;62463;46.166;3.640;2022-07-29T10:46:02;96939.66;;;22.90;54.88
74103;BME280;62463;46.166;3.640;2022-07-29T10:48:29;96930.31;;;22.93;55.56
74103;BME280;62463;46.166;3.640;2022-07-29T10:51:04;96935.09;;;23.33;55.72
74103;BME280;62463;46.166;3.640;2022-07-29T10:53:52;96934.88;;;23.45;53.79
74103;BME280;62463;46.166;3.640;2022-07-29T10:56:29;96941.63;;;23.58;55.31
74103;BME280;62463;46.166;3.640;2022-07-29T11:01:50;96933.84;;;23.62;51.44
74103;BME280;62463;46.166;3.640;2022-07-29T11:07:11;96937.34;;;23.62;53.45
74103;BME280;62463;46.166;3.640;2022-07-29T11:09:41;96918.22;;;23.48;52.30
74103;BME280;62463;46.166;3.640;2022-07-29T11:15:02;96918.53;;;23.67;52.27
74103;BME280;62463;46.166;3.640;2022-07-29T11:17:28;96926.59;;;23.67;50.80
74103;BME280;62463;46.166;3.640;2022-07-29T11:22:58;96922.59;;;23.80;49.21
74103;BME280;62463;46.166;3.640;2022-07-29T11:25:24;96919.19;;;24.10;44.57
74103;BME280;62463;46.166;3.640;2022-07-29T11:27:52;96910.31;;;24.30;46.40
74103;BME280;62463;46.166;3.640;2022-07-29T11:30:19;96913.78;;;24.67;40.53
74103;BME280;62463;46.166;3.640;2022-07-29T11:32:46;96914.28;;;24.95;41.41
74103;BME280;62463;46.166;3.640;2022-07-29T11:35:15;96913.38;;;25.25;38.81
74103;BME280;62463;46.166;3.640;2022-07-29T11:37:43;96905.94;;;25.61;38.47
74103;BME280;62463;46.166;3.640;2022-07-29T11:40:13;96906.16;;;25.75;39.02
74103;BME280;62463;46.166;3.640;2022-07-29T11:42:41;96907.84;;;25.61;35.34
74103;BME280;62463;46.166;3.640;2022-07-29T11:45:19;96900.81;;;25.65;37.49
74103;BME280;62463;46.166;3.640;2022-07-29T11:50:16;96901.28;;;26.51;37.72
74103;BME280;62463;46.166;3.640;2022-07-29T11:52:46;96898.69;;;26.70;39.23
74103;BME280;62463;46.166;3.640;2022-07-29T11:55:18;96892.16;;;27.01;36.70
74103;BME280;62463;46.166;3.640;2022-07-29T11:57:45;96891.34;;;27.00;35.67
74103;BME280;62463;46.166;3.640;2022-07-29T12:00:13;96901.66;;;26.40;35.65
74103;BME280;62463;46.166;3.640;2022-07-29T12:02:46;96893.34;;;25.96;36.29
74103;BME280;62463;46.166;3.640;2022-07-29T12:05:12;96894.72;;;25.44;37.69
74103;BME280;62463;46.166;3.640;2022-07-29T12:07:39;96902.09;;;25.13;37.56
74103;BME280;62463;46.166;3.640;2022-07-29T12:10:06;96897.22;;;25.25;38.73
74103;BME280;62463;46.166;3.640;2022-07-29T12:12:33;96900.72;;;25.31;37.21
74103;BME280;62463;46.166;3.640;2022-07-29T12:15:14;96895.69;;;24.98;39.32
74103;BME280;62463;46.166;3.640;2022-07-29T12:17:41;96902.50;;;24.70;40.07
74103;BME280;62463;46.166;3.640;2022-07-29T12:20:07;96905.72;;;24.51;40.63
74103;BME280;62463;46.166;3.640;2022-07-29T12:22:39;96907.34;;;24.52;41.37
74103;BME280;62463;46.166;3.640;2022-07-29T12:25:11;96910.81;;;24.53;38.59
74103;BME280;62463;46.166;3.640;2022-07-29T12:27:39;96907.28;;;24.94;43.37
74103;BME280;62463;46.166;3.640;2022-07-29T12:30:08;96898.47;;;25.48;38.33
74103;BME280;62463;46.166;3.640;2022-07-29T12:32:37;96902.06;;;25.78;36.90
74103;BME280;62463;46.166;3.640;2022-07-29T12:35:04;96907.91;;;25.95;37.25
74103;BME280;62463;46.166;3.640;2022-07-29T12:37:36;96896.56;;;25.93;37.24
74103;BME280;62463;46.166;3.640;2022-07-29T12:40:07;96897.31;;;25.65;37.00
74103;BME280;62463;46.166;3.640;2022-07-29T12:42:34;96898.03;;;25.80;36.76
74103;BME280;62463;46.166;3.640;2022-07-29T12:45:01;96908.22;;;25.84;37.85
74103;BME280;62463;46.166;3.640;2022-07-29T12:47:28;96907.47;;;25.13;37.00
74103;BME280;62463;46.166;3.640;2022-07-29T12:50:11;96911.06;;;24.98;38.22
74103;BME280;62463;46.166;3.640;2022-07-29T12:52:37;96907.59;;;24.77;38.13
74103;BME280;62463;46.166;3.640;2022-07-29T12:55:04;96914.59;;;24.78;38.49
74103;BME280;62463;46.166;3.640;2022-07-29T12:57:31;96912.94;;;24.87;38.90
74103;BME280;62463;46.166;3.640;2022-07-29T13:00:16;96919.94;;;24.93;39.71
74103;BME280;62463;46.166;3.640;2022-07-29T13:02:55;96915.91;;;24.80;38.04
74103;BME280;62463;46.166;3.640;2022-07-29T13:05:21;96916.50;;;24.57;39.13
74103;BME280;62463;46.166;3.640;2022-07-29T13:07:47;96919.19;;;24.46;40.22
74103;BME280;62463;46.166;3.640;2022-07-29T13:10:15;96919.44;;;24.35;40.22
74103;BME280;62463;46.166;3.640;2022-07-29T13:13:01;96919.72;;;24.33;40.42
74103;BME280;62463;46.166;3.640;2022-07-29T13:15:27;96925.63;;;24.25;40.51
74103;BME280;62463;46.166;3.640;2022-07-29T13:17:53;96922.41;;;24.38;40.98
74103;BME280;62463;46.166;3.640;2022-07-29T13:20:22;96923.50;;;24.32;41.62
74103;BME280;62463;46.166;3.640;2022-07-29T13:22:48;96912.47;;;24.44;42.50
74103;BME280;62463;46.166;3.640;2022-07-29T13:25:14;96932.09;;;24.39;40.39
74103;BME280;62463;46.166;3.640;2022-07-29T13:27:49;96930.19;;;24.40;41.24
74103;BME280;62463;46.166;3.640;2022-07-29T13:30:15;96925.06;;;24.54;41.36
74103;BME280;62463;46.166;3.640;2022-07-29T13:32:41;96925.66;;;24.50;40.99
74103;BME280;62463;46.166;3.640;2022-07-29T13:35:08;96925.09;;;24.28;40.19
74103;BME280;62463;46.166;3.640;2022-07-29T13:37:35;96938.28;;;24.19;41.83
74103;BME280;62463;46.166;3.640;2022-07-29T13:40:04;96932.63;;;24.21;41.70
74103;BME280;62463;46.166;3.640;2022-07-29T13:42:31;96933.16;;;24.33;41.71
74103;BME280;62463;46.166;3.640;2022-07-29T13:44:58;96935.84;;;24.43;40.48
74103;BME280;62463;46.166;3.640;2022-07-29T13:47:24;96940.72;;;24.57;40.72
74103;BME280;62463;46.166;3.640;2022-07-29T13:49:51;96941.75;;;24.86;40.63
74103;BME280;62463;46.166;3.640;2022-07-29T13:52:17;96930.41;;;25.05;40.03
74103;BME280;62463;46.166;3.640;2022-07-29T13:54:43;96937.38;;;25.16;38.20
74103;BME280;62463;46.166;3.640;2022-07-29T13:57:10;96935.72;;;25.25;38.75
74103;BME280;62463;46.166;3.640;2022-07-29T13:59:36;96933.06;;;25.15;39.61
74103;BME280;62463;46.166;3.640;2022-07-29T14:02:02;96928.44;;;25.21;37.24
74103;BME280;62463;46.166;3.640;2022-07-29T14:04:28;96935.19;;;25.34;36.94